Time;durP1;ratioP1;P1;durP2;ratioP2;P2;SDS_P1;SDS_P2;PMS_P1;PMS_P2;Temp;Humidity;BMP_temperature;BMP_pressure;BME280_temperature;BME280_humidity;BME280_pressure;Samples;Min_cycle;Max_cycle;Signal;HPM_P1;HPM_P2
2022/03/16 00:00:10;;;;;;;;;;;;;;;6.46;100.00;96472.41;1038667;28;19913;-70
2022/03/16 00:00:40;;;;;;;;;;;;;;;6.49;100.00;96473.78;1039091;28;19944;-69
2022/03/16 00:01:11;;;;;;;;;;;;;;;6.47;100.00;96478.41;1038813;28;19916;-70
2022/03/16 00:01:41;;;;;;;;;;;;;;;6.50;100.00;96472.75;1031372;28;19906;-70
2022/03/16 00:02:11;;;;;;;;;;;;;;;6.50;100.00;96478.78;1030809;28;20028;-72
2022/03/16 00:02:42;;;;;;;;;;;;;;;6.50;100.00;96477.97;1031017;28;19914;-70
2022/03/16 00:03:12;;;;;;;;;;;;;;;6.48;100.00;96480.03;1030923;28;20004;-70
2022/03/16 00:03:42;;;;;;;;;;;;;;;6.50;100.00;96480.59;1035034;28;19925;-71
2022/03/16 00:04:13;;;;;;;;;;;;;;;6.51;100.00;96477.78;1042685;28;19951;-70
2022/03/16 00:04:43;;;;;;;;;;;;;;;6.51;100.00;96474.38;1043461;28;19924;-71
2022/03/16 00:05:13;;;;;;;;;;;;;;;6.50;100.00;96476.16;1034620;28;19909;-71
2022/03/16 00:05:44;;;;;;;;;;;;;;;6.50;100.00;96472.75;1030923;28;19929;-70
2022/03/16 00:06:14;;;;;;;;;;;;;;;6.53;100.00;96480.16;1031171;28;19914;-70
2022/03/16 00:06:44;;;;;;;;;;;;;;;6.55;100.00;96478.13;1030965;28;19914;-71
2022/03/16 00:07:17;;;;;;;;;;;;;;;6.53;100.00;96473.13;1035598;28;19916;-70
2022/03/16 00:07:48;;;;;;;;;;;;;;;6.53;100.00;96477.53;1043167;28;20389;-69
2022/03/16 00:08:18;;;;;;;;;;;;;;;6.53;100.00;96475.72;1043182;28;19913;-71
2022/03/16 00:08:52;;;;;;;;;;;;;;;6.51;100.00;96480.38;1043537;28;20565;-70
2022/03/16 00:09:22;;;;;;;;;;;;;;;6.50;100.00;96476.16;1038278;28;19923;-70
2022/03/16 00:09:52;;;;;;;;;;;;;;;6.50;100.00;96480.59;1039085;28;20455;-70
2022/03/16 00:10:29;;;;;;;;;;;;;;;6.51;100.00;96479.59;1038974;28;19909;-70
2022/03/16 00:10:59;;;;;;;;;;;;;;;6.52;100.00;96484.56;1039849;28;19920;-71
2022/03/16 00:11:29;;;;;;;;;;;;;;;6.52;100.00;96475.97;1043465;28;20044;-71
2022/03/16 00:11:59;;;;;;;;;;;;;;;6.53;100.00;96478.34;1038927;28;20804;-71
2022/03/16 00:12:30;;;;;;;;;;;;;;;6.49;100.00;96482.41;1034926;28;19918;-71
2022/03/16 00:13:00;;;;;;;;;;;;;;;6.48;100.00;96480.81;1031021;28;20614;-70
2022/03/16 00:13:31;;;;;;;;;;;;;;;6.36;100.00;96465.09;1026571;28;20034;-70
2022/03/16 00:14:02;;;;;;;;;;;;;;;6.48;100.00;96475.59;1026862;28;20608;-72
2022/03/16 00:14:32;;;;;;;;;;;;;;;6.45;100.00;96478.63;1027053;28;19914;-70
2022/03/16 00:15:03;;;;;;;;;;;;;;;6.45;100.00;96473.44;1027192;28;19921;-71
2022/03/16 00:15:33;;;;;;;;;;;;;;;6.46;100.00;96474.22;1031129;28;19914;-71
2022/03/16 00:16:05;;;;;;;;;;;;;;;6.47;100.00;96481.00;1038080;28;19917;-71
2022/03/16 00:16:35;;;;;;;;;;;;;;;6.45;100.00;96473.44;1039220;28;19980;-70
2022/03/16 00:17:06;;;;;;;;;;;;;;;6.47;100.00;96475.81;1035124;28;20406;-70
2022/03/16 00:17:36;;;;;;;;;;;;;;;6.47;100.00;96475.81;1038881;28;19913;-69
2022/03/16 00:18:06;;;;;;;;;;;;;;;6.45;100.00;96472.63;1038961;28;19967;-70
2022/03/16 00:18:37;;;;;;;;;;;;;;;6.43;100.00;96475.44;1035061;28;20369;-70
2022/03/16 00:19:07;;;;;;;;;;;;;;;6.42;100.00;96470.47;1034148;28;20044;-69
2022/03/16 00:19:39;;;;;;;;;;;;;;;6.40;100.00;96475.09;1039086;28;19917;-71
2022/03/16 00:20:10;;;;;;;;;;;;;;;6.41;100.00;96474.09;1038890;28;20751;-70
2022/03/16 00:20:40;;;;;;;;;;;;;;;6.41;100.00;96474.88;1038929;28;19921;-71
2022/03/16 00:21:11;;;;;;;;;;;;;;;6.41;100.00;96472.28;1035387;28;19914;-70
2022/03/16 00:21:41;;;;;;;;;;;;;;;6.40;100.00;96472.47;1034877;28;19929;-71
2022/03/16 00:22:11;;;;;;;;;;;;;;;6.38;100.00;96476.09;1031056;28;19925;-70
2022/03/16 00:22:42;;;;;;;;;;;;;;;6.41;100.00;96471.47;1026857;28;20500;-72
2022/03/16 00:23:12;;;;;;;;;;;;;;;6.43;100.00;96477.25;1030870;28;19922;-71
2022/03/16 00:23:42;;;;;;;;;;;;;;;6.41;100.00;96471.47;1031107;28;20595;-70
2022/03/16 00:24:13;;;;;;;;;;;;;;;6.41;100.00;96474.88;1034699;28;19929;-70
2022/03/16 00:24:43;;;;;;;;;;;;;;;6.41;100.00;96468.88;1030839;28;19925;-70
2022/03/16 00:25:13;;;;;;;;;;;;;;;6.42;100.00;96473.06;1039151;28;19917;-70
2022/03/16 00:25:47;;;;;;;;;;;;;;;6.41;100.00;96474.88;1029050;28;19918;-70
2022/03/16 00:26:20;;;;;;;;;;;;;;;6.41;100.00;96477.50;1034692;28;20378;-70
2022/03/16 00:26:51;;;;;;;;;;;;;;;6.42;100.00;96479.06;1034147;28;19918;-71
2022/03/16 00:27:21;;;;;;;;;;;;;;;6.41;100.00;96468.88;1032151;28;19944;-71
2022/03/16 00:27:51;;;;;;;;;;;;;;;6.44;100.00;96478.84;1035390;28;19921;-70
2022/03/16 00:28:22;;;;;;;;;;;;;;;6.42;100.00;96470.47;1034731;28;19918;-70
2022/03/16 00:28:52;;;;;;;;;;;;;;;6.42;100.00;96475.69;1034891;28;19944;-70
2022/03/16 00:29:22;;;;;;;;;;;;;;;6.47;100.00;96475.81;1034167;28;19920;-71
2022/03/16 00:29:52;;;;;;;;;;;;;;;6.46;100.00;96482.84;1034797;28;19975;-70
2022/03/16 00:30:24;;;;;;;;;;;;;;;6.48;100.00;96480.03;1034880;28;20012;-70
2022/03/16 00:30:54;;;;;;;;;;;;;;;6.50;100.00;96477.97;1030631;28;19913;-70
2022/03/16 00:31:25;;;;;;;;;;;;;;;6.48;100.00;96477.41;1027080;28;19906;-70
2022/03/16 00:31:55;;;;;;;;;;;;;;;6.47;100.00;96481.00;1035189;28;20295;-70
2022/03/16 00:32:25;;;;;;;;;;;;;;;6.46;100.00;96472.41;1030669;28;19914;-70
2022/03/16 00:32:56;;;;;;;;;;;;;;;6.44;100.00;96476.22;1030623;28;19914;-70
2022/03/16 00:33:26;;;;;;;;;;;;;;;6.49;100.00;96482.41;1031114;28;19917;-70
2022/03/16 00:33:56;;;;;;;;;;;;;;;6.49;100.00;96481.59;1029243;28;19968;-69
2022/03/16 00:34:27;;;;;;;;;;;;;;;6.49;100.00;96474.56;1032282;28;20367;-70
2022/03/16 00:34:57;;;;;;;;;;;;;;;6.48;100.00;96480.81;1031070;28;19933;-70
2022/03/16 00:35:30;;;;;;;;;;;;;;;6.47;100.00;96476.63;1034906;28;19913;-70
2022/03/16 00:36:00;;;;;;;;;;;;;;;6.50;100.00;96477.97;1034831;28;20012;-70
2022/03/16 00:36:31;;;;;;;;;;;;;;;6.51;100.00;96479.59;1035251;28;19920;-70
2022/03/16 00:37:01;;;;;;;;;;;;;;;6.51;100.00;96475.16;1034880;28;20341;-70
2022/03/16 00:37:32;;;;;;;;;;;;;;;6.53;100.00;96478.34;1031176;28;19910;-70
2022/03/16 00:38:03;;;;;;;;;;;;;;;6.53;100.00;96488.75;1034945;28;19918;-70
2022/03/16 00:38:33;;;;;;;;;;;;;;;6.53;100.00;96482.75;1035447;28;19917;-70
2022/03/16 00:39:03;;;;;;;;;;;;;;;6.53;100.00;96478.34;1037903;28;19931;-70
2022/03/16 00:39:34;;;;;;;;;;;;;;;6.54;100.00;96479.16;1034698;28;20605;-70
2022/03/16 00:40:04;;;;;;;;;;;;;;;6.55;100.00;96480.75;1035294;28;19917;-72
2022/03/16 00:40:35;;;;;;;;;;;;;;;6.56;100.00;96477.09;1026689;28;19958;-70
2022/03/16 00:41:10;;;;;;;;;;;;;;;6.57;100.00;96478.69;1026742;28;19911;-70
2022/03/16 00:41:43;;;;;;;;;;;;;;;6.59;100.00;96482.69;1028234;28;19922;-70
2022/03/16 00:42:13;;;;;;;;;;;;;;;6.61;100.00;96479.88;1028804;28;20517;-70
2022/03/16 00:42:43;;;;;;;;;;;;;;;6.62;100.00;96476.25;1032146;28;19960;-71
2022/03/16 00:43:14;;;;;;;;;;;;;;;6.64;100.00;96484.66;1030635;28;19921;-70
2022/03/16 00:43:49;;;;;;;;;;;;;;;6.61;100.00;96482.47;1031203;28;20470;-70
2022/03/16 00:44:20;;;;;;;;;;;;;;;6.60;100.00;96478.25;1036110;28;19894;-69
2022/03/16 00:44:50;;;;;;;;;;;;;;;6.60;100.00;96478.25;1034655;28;19913;-70
2022/03/16 00:45:25;;;;;;;;;;;;;;;6.60;100.00;96483.47;1035305;28;19915;-71
2022/03/16 00:45:56;;;;;;;;;;;;;;;6.61;100.00;96480.66;1035670;28;19956;-70
2022/03/16 00:46:29;;;;;;;;;;;;;;;6.65;100.00;96480.22;1035831;28;19918;-70
2022/03/16 00:46:59;;;;;;;;;;;;;;;6.62;100.00;96481.47;1039262;28;19913;-70
2022/03/16 00:47:29;;;;;;;;;;;;;;;6.63;100.00;96482.25;1038958;28;19909;-70
2022/03/16 00:48:00;;;;;;;;;;;;;;;6.61;100.00;96483.28;1038937;28;19913;-70
2022/03/16 00:48:30;;;;;;;;;;;;;;;6.60;100.00;96486.88;1035035;28;19917;-71
2022/03/16 00:49:00;;;;;;;;;;;;;;;6.63;100.00;96483.03;1034148;28;19921;-69
2022/03/16 00:49:33;;;;;;;;;;;;;;;6.65;100.00;96486.22;1034949;28;19925;-70
2022/03/16 00:50:04;;;;;;;;;;;;;;;6.63;100.00;96487.47;1035126;28;19922;-69
2022/03/16 00:50:34;;;;;;;;;;;;;;;6.59;100.00;96481.88;1038945;28;19960;-71
2022/03/16 00:51:04;;;;;;;;;;;;;;;6.63;100.00;96487.47;1030745;28;20045;-70
2022/03/16 00:51:35;;;;;;;;;;;;;;;6.63;100.00;96482.25;1030785;28;20635;-71
2022/03/16 00:52:06;;;;;;;;;;;;;;;6.59;100.00;96482.69;1030763;28;19910;-69
2022/03/16 00:52:36;;;;;;;;;;;;;;;6.57;100.00;96481.31;1031391;28;19917;-70
2022/03/16 00:53:06;;;;;;;;;;;;;;;6.58;100.00;96475.09;1038657;28;19924;-70
2022/03/16 00:53:39;;;;;;;;;;;;;;;6.56;100.00;96477.91;1039309;28;19924;-70
2022/03/16 00:54:09;;;;;;;;;;;;;;;6.55;100.00;96483.34;1034804;28;20735;-70
2022/03/16 00:54:40;;;;;;;;;;;;;;;6.56;100.00;96479.72;1030619;28;19952;-70
2022/03/16 00:55:10;;;;;;;;;;;;;;;6.55;100.00;96480.75;1030025;28;20310;-69
2022/03/16 00:55:41;;;;;;;;;;;;;;;6.57;100.00;96478.69;1030298;28;19921;-69
2022/03/16 00:56:11;;;;;;;;;;;;;;;6.57;100.00;96474.31;1034836;28;19956;-70
2022/03/16 00:56:41;;;;;;;;;;;;;;;6.56;100.00;96482.31;1030949;28;19922;-70
2022/03/16 00:57:11;;;;;;;;;;;;;;;6.54;100.00;96474.72;1030701;28;19917;-70
2022/03/16 00:57:42;;;;;;;;;;;;;;;6.57;100.00;96489.13;1031075;28;20411;-70
2022/03/16 00:58:12;;;;;;;;;;;;;;;6.58;100.00;96481.09;1034720;28;20027;-70
2022/03/16 00:58:42;;;;;;;;;;;;;;;6.58;100.00;96480.31;1034870;28;19913;-70
2022/03/16 00:59:13;;;;;;;;;;;;;;;6.56;100.00;96482.31;1034248;28;19918;-69
2022/03/16 00:59:43;;;;;;;;;;;;;;;6.58;100.00;96475.88;1034714;28;19956;-70
2022/03/16 01:00:13;;;;;;;;;;;;;;;6.61;100.00;96477.25;1034533;28;19917;-70
2022/03/16 01:00:44;;;;;;;;;;;;;;;6.60;100.00;96478.25;1039065;28;19919;-70
2022/03/16 01:01:14;;;;;;;;;;;;;;;6.60;100.00;96480.88;1034986;28;19913;-69
2022/03/16 01:01:44;;;;;;;;;;;;;;;6.57;100.00;96479.50;1035170;28;19917;-71
2022/03/16 01:02:15;;;;;;;;;;;;;;;6.57;100.00;96478.69;1035442;28;20027;-72
2022/03/16 01:02:45;;;;;;;;;;;;;;;6.56;100.00;96477.09;1035278;28;19924;-70
2022/03/16 01:03:18;;;;;;;;;;;;;;;6.59;100.00;96472.25;1035030;28;19913;-70
2022/03/16 01:03:48;;;;;;;;;;;;;;;6.60;100.00;96475.66;1034940;28;19925;-70
2022/03/16 01:04:19;;;;;;;;;;;;;;;6.59;100.00;96480.06;1031229;28;19926;-70
2022/03/16 01:04:54;;;;;;;;;;;;;;;6.58;100.00;96478.50;1031706;28;19938;-70
2022/03/16 01:05:24;;;;;;;;;;;;;;;6.59;100.00;96482.69;1030833;28;19910;-71
2022/03/16 01:05:55;;;;;;;;;;;;;;;6.57;100.00;96478.69;1031602;28;20291;-70
2022/03/16 01:06:25;;;;;;;;;;;;;;;6.58;100.00;96469.88;1035457;28;19957;-70
2022/03/16 01:06:55;;;;;;;;;;;;;;;6.57;100.00;96476.09;1041521;28;19928;-70
2022/03/16 01:07:26;;;;;;;;;;;;;;;6.56;100.00;96477.09;1039140;28;19917;-71
2022/03/16 01:07:56;;;;;;;;;;;;;;;6.61;100.00;96478.06;1034704;28;20415;-70
2022/03/16 01:08:27;;;;;;;;;;;;;;;6.61;100.00;96474.66;1034674;28;20474;-70
2022/03/16 01:08:57;;;;;;;;;;;;;;;6.60;100.00;96473.03;1034477;28;19917;-69
2022/03/16 01:09:28;;;;;;;;;;;;;;;6.57;100.00;96476.91;1039160;28;20440;-72
2022/03/16 01:09:58;;;;;;;;;;;;;;;6.56;100.00;96477.91;1044494;28;19943;-70
2022/03/16 01:10:28;;;;;;;;;;;;;;;6.57;100.00;96478.69;1040265;28;20334;-70
2022/03/16 01:10:58;;;;;;;;;;;;;;;6.60;100.00;96468.63;1040313;28;19921;-70
2022/03/16 01:11:29;;;;;;;;;;;;;;;6.63;100.00;96477.81;1036244;28;19918;-70
2022/03/16 01:12:00;;;;;;;;;;;;;;;6.58;100.00;96477.69;1039928;28;20374;-70
2022/03/16 01:12:30;;;;;;;;;;;;;;;6.58;100.00;96477.69;1040330;28;19909;-72
2022/03/16 01:13:01;;;;;;;;;;;;;;;6.58;100.00;96480.31;1040481;28;20463;-72
2022/03/16 01:13:31;;;;;;;;;;;;;;;6.56;100.00;96477.09;1035880;28;19921;-71
2022/03/16 01:14:04;;;;;;;;;;;;;;;6.58;100.00;96475.88;1032032;28;20014;-70
2022/03/16 01:14:34;;;;;;;;;;;;;;;6.60;100.00;96475.66;1036206;28;20703;-70
2022/03/16 01:15:07;;;;;;;;;;;;;;;6.58;100.00;96475.09;1032771;28;19921;-70
2022/03/16 01:15:38;;;;;;;;;;;;;;;6.59;100.00;96474.06;1028935;28;20419;-71
2022/03/16 01:16:08;;;;;;;;;;;;;;;6.59;100.00;96469.66;1027981;28;20146;-70
2022/03/16 01:16:39;;;;;;;;;;;;;;;6.57;100.00;96478.69;1028361;28;19918;-70
2022/03/16 01:17:10;;;;;;;;;;;;;;;6.58;100.00;96475.09;1032168;28;20453;-70
2022/03/16 01:17:40;;;;;;;;;;;;;;;6.58;100.00;96477.69;1036213;28;19943;-71
2022/03/16 01:18:10;;;;;;;;;;;;;;;6.58;100.00;96469.88;1040246;28;19921;-70
2022/03/16 01:18:41;;;;;;;;;;;;;;;6.57;100.00;96479.50;1040581;28;19918;-70
2022/03/16 01:19:14;;;;;;;;;;;;;;;6.56;100.00;96485.72;1039530;28;20680;-70
2022/03/16 01:19:45;;;;;;;;;;;;;;;6.56;100.00;96477.09;1040337;28;19976;-70
2022/03/16 01:20:15;;;;;;;;;;;;;;;6.57;100.00;96473.47;1036009;28;20401;-70
2022/03/16 01:20:45;;;;;;;;;;;;;;;6.54;100.00;96477.34;1036188;28;19913;-71
2022/03/16 01:21:15;;;;;;;;;;;;;;;6.22;100.00;96429.78;1036572;28;19914;-70
2022/03/16 01:21:46;;;;;;;;;;;;;;;6.58;100.00;96475.09;1040250;28;19913;-70
2022/03/16 01:22:16;;;;;;;;;;;;;;;6.56;100.00;96471.91;1032068;28;19910;-71
2022/03/16 01:22:46;;;;;;;;;;;;;;;6.56;100.00;96483.13;1032061;28;19920;-70
2022/03/16 01:23:17;;;;;;;;;;;;;;;6.56;100.00;96479.72;1028158;28;19929;-70
2022/03/16 01:23:47;;;;;;;;;;;;;;;6.57;100.00;96478.69;1032256;28;20467;-70
2022/03/16 01:24:17;;;;;;;;;;;;;;;6.55;100.00;96481.53;1035746;28;19964;-71
2022/03/16 01:24:48;;;;;;;;;;;;;;;6.56;100.00;96479.72;1032139;28;19961;-71
2022/03/16 01:25:18;;;;;;;;;;;;;;;6.53;100.00;96474.94;1028363;28;19917;-70
2022/03/16 01:25:48;;;;;;;;;;;;;;;6.52;100.00;96476.75;1034476;28;19913;-71
2022/03/16 01:26:19;;;;;;;;;;;;;;;6.52;100.00;96481.19;1035966;28;19945;-71
2022/03/16 01:26:49;;;;;;;;;;;;;;;6.54;100.00;96479.16;1036206;28;19917;-70
2022/03/16 01:27:19;;;;;;;;;;;;;;;6.53;100.00;96472.31;1036069;28;20422;-70
2022/03/16 01:27:49;;;;;;;;;;;;;;;6.51;100.00;96469.94;1036183;28;20010;-71
2022/03/16 01:28:20;;;;;;;;;;;;;;;6.53;100.00;96474.94;1036058;28;19976;-70
2022/03/16 01:28:50;;;;;;;;;;;;;;;6.51;100.00;96471.78;1040088;28;19975;-70
2022/03/16 01:29:20;;;;;;;;;;;;;;;6.51;100.00;96480.38;1035606;28;20003;-70
2022/03/16 01:29:51;;;;;;;;;;;;;;;6.50;100.00;96470.94;1032023;28;19920;-70
2022/03/16 01:30:21;;;;;;;;;;;;;;;6.49;100.00;96471.97;1036202;28;19952;-70
2022/03/16 01:30:51;;;;;;;;;;;;;;;6.48;100.00;96467.78;1036267;28;19926;-70
2022/03/16 01:31:21;;;;;;;;;;;;;;;6.53;100.00;96473.13;1036087;28;19917;-70
2022/03/16 01:31:54;;;;;;;;;;;;;;;6.51;100.00;96475.16;1032398;28;19914;-71
2022/03/16 01:32:25;;;;;;;;;;;;;;;6.50;100.00;96468.34;1032150;28;19996;-70
2022/03/16 01:32:55;;;;;;;;;;;;;;;6.51;100.00;96469.94;1028312;28;19918;-71
2022/03/16 01:33:25;;;;;;;;;;;;;;;6.53;100.00;96469.72;1032715;28;20017;-71
2022/03/16 01:33:56;;;;;;;;;;;;;;;6.51;100.00;96471.78;1036215;28;19917;-71
2022/03/16 01:34:26;;;;;;;;;;;;;;;6.53;100.00;96470.50;1037617;28;19941;-70
2022/03/16 01:34:56;;;;;;;;;;;;;;;6.53;100.00;96467.91;1036299;28;19925;-70
2022/03/16 01:35:27;;;;;;;;;;;;;;;6.52;100.00;96465.53;1036139;28;19913;-70
2022/03/16 01:35:57;;;;;;;;;;;;;;;6.51;100.00;96466.56;1036205;28;19914;-70
2022/03/16 01:36:28;;;;;;;;;;;;;;;6.49;100.00;96471.19;1040144;28;19953;-70
2022/03/16 01:36:58;;;;;;;;;;;;;;;6.47;100.00;96467.97;1035925;28;20556;-71
2022/03/16 01:37:30;;;;;;;;;;;;;;;6.49;100.00;96476.41;1036211;28;19924;-70
2022/03/16 01:38:03;;;;;;;;;;;;;;;6.49;100.00;96468.56;1036733;28;19913;-70
2022/03/16 01:38:33;;;;;;;;;;;;;;;6.50;100.00;96464.94;1036700;28;20246;-70
2022/03/16 01:39:04;;;;;;;;;;;;;;;6.50;100.00;96464.94;1035631;28;19922;-71
2022/03/16 01:39:34;;;;;;;;;;;;;;;6.49;100.00;96471.19;1035851;28;20004;-70
2022/03/16 01:40:05;;;;;;;;;;;;;;;6.47;100.00;96463.59;1036142;28;20320;-70
2022/03/16 01:40:36;;;;;;;;;;;;;;;6.45;100.00;96465.59;1036161;28;19928;-70
2022/03/16 01:41:06;;;;;;;;;;;;;;;6.47;100.00;96468.81;1039985;28;19980;-70
2022/03/16 01:41:36;;;;;;;;;;;;;;;6.48;100.00;96470.38;1040238;28;19917;-70
2022/03/16 01:42:07;;;;;;;;;;;;;;;6.48;100.00;96469.59;1040063;28;19944;-71
2022/03/16 01:42:37;;;;;;;;;;;;;;;6.46;100.00;96474.22;1039958;28;19914;-70
2022/03/16 01:43:07;;;;;;;;;;;;;;;6.49;100.00;96468.56;1040014;28;19921;-70
2022/03/16 01:43:38;;;;;;;;;;;;;;;6.49;100.00;96471.19;1040142;28;19933;-71
2022/03/16 01:44:08;;;;;;;;;;;;;;;6.48;100.00;96470.38;1040376;28;20406;-70
2022/03/16 01:44:43;;;;;;;;;;;;;;;6.46;100.00;96477.63;1040035;28;20215;-70
2022/03/16 01:45:13;;;;;;;;;;;;;;;6.38;100.00;96476.09;1040007;28;19917;-71
2022/03/16 01:45:44;;;;;;;;;;;;;;;6.35;100.00;96476.53;1040382;28;19921;-69
2022/03/16 01:46:15;;;;;;;;;;;;;;;6.36;100.00;96467.69;1035932;28;20035;-70
2022/03/16 01:46:45;;;;;;;;;;;;;;;6.34;100.00;96467.13;1036181;28;19951;-70
2022/03/16 01:47:16;;;;;;;;;;;;;;;6.33;100.00;96473.34;1032110;28;19918;-71
2022/03/16 01:47:46;;;;;;;;;;;;;;;6.30;100.00;96468.56;1032029;28;19909;-70
2022/03/16 01:48:17;;;;;;;;;;;;;;;6.17;100.00;96458.31;1036153;28;19914;-70
2022/03/16 01:48:47;;;;;;;;;;;;;;;6.30;100.00;96473.78;1031985;28;19918;-71
2022/03/16 01:49:20;;;;;;;;;;;;;;;6.25;100.00;96468.44;1031267;28;20054;-69
2022/03/16 01:49:51;;;;;;;;;;;;;;;6.19;100.00;96471.91;1035955;28;20024;-69
2022/03/16 01:50:21;;;;;;;;;;;;;;;6.23;100.00;96467.03;1036202;28;19921;-70
2022/03/16 01:50:52;;;;;;;;;;;;;;;6.21;100.00;96469.88;1035999;28;19983;-70
2022/03/16 01:51:23;;;;;;;;;;;;;;;6.19;100.00;96471.09;1035902;28;19917;-70
2022/03/16 01:51:53;;;;;;;;;;;;;;;6.19;100.00;96468.50;1036064;28;20413;-70
2022/03/16 01:52:24;;;;;;;;;;;;;;;6.18;100.00;96465.09;1028219;28;19924;-70
2022/03/16 01:52:55;;;;;;;;;;;;;;;6.17;100.00;96463.50;1028450;28;20658;-70
2022/03/16 01:53:26;;;;;;;;;;;;;;;6.15;100.00;96465.53;1031210;28;19918;-69
2022/03/16 01:53:57;;;;;;;;;;;;;;;6.14;100.00;96474.38;1033064;28;19914;-69
2022/03/16 01:54:27;;;;;;;;;;;;;;;6.16;100.00;96467.13;1028362;28;19944;-69
2022/03/16 01:55:04;;;;;;;;;;;;;;;6.14;100.00;96469.16;1024525;29;19923;-69
2022/03/16 01:55:35;;;;;;;;;;;;;;;6.13;100.00;96472.75;1021570;29;20289;-70
2022/03/16 01:56:05;;;;;;;;;;;;;;;6.13;100.00;96467.53;1026359;28;19922;-69
2022/03/16 01:56:35;;;;;;;;;;;;;;;6.12;100.00;96471.97;1026251;28;20500;-70
2022/03/16 01:57:07;;;;;;;;;;;;;;;6.14;100.00;96467.34;1032258;28;19949;-69
2022/03/16 01:57:38;;;;;;;;;;;;;;;6.13;100.00;96468.34;1032431;28;19918;-69
2022/03/16 01:58:08;;;;;;;;;;;;;;;6.11;100.00;96474.78;1028673;28;20301;-69
2022/03/16 01:58:39;;;;;;;;;;;;;;;6.08;100.00;96472.63;1032633;28;19925;-69
2022/03/16 01:59:09;;;;;;;;;;;;;;;6.08;100.00;96470.00;1032442;28;20293;-70
2022/03/16 01:59:43;;;;;;;;;;;;;;;6.06;100.00;96470.22;1032711;28;19918;-70
2022/03/16 02:00:13;;;;;;;;;;;;;;;6.04;100.00;96471.47;1033434;28;19917;-70
2022/03/16 02:00:43;;;;;;;;;;;;;;;6.05;100.00;96465.22;1037012;28;19957;-70
2022/03/16 02:01:14;;;;;;;;;;;;;;;6.04;100.00;96474.84;1037219;28;20337;-70
2022/03/16 02:01:45;;;;;;;;;;;;;;;6.07;100.00;96473.59;1036365;28;20433;-70
2022/03/16 02:02:15;;;;;;;;;;;;;;;6.04;100.00;96468.84;1036917;28;19922;-69
2022/03/16 02:02:48;;;;;;;;;;;;;;;6.04;100.00;96468.84;1036777;28;19921;-69
2022/03/16 02:03:18;;;;;;;;;;;;;;;6.03;100.00;96473.25;1038406;28;19948;-69
2022/03/16 02:03:49;;;;;;;;;;;;;;;6.02;100.00;96471.66;1040677;28;19921;-69
2022/03/16 02:04:19;;;;;;;;;;;;;;;6.01;100.00;96474.50;1040627;28;19956;-70
2022/03/16 02:04:49;;;;;;;;;;;;;;;6.04;100.00;96474.06;1041014;28;20306;-70
2022/03/16 02:05:20;;;;;;;;;;;;;;;5.99;100.00;96472.09;1040579;28;19920;-70
2022/03/16 02:05:50;;;;;;;;;;;;;;;6.00;100.00;96467.66;1040830;28;19917;-69
2022/03/16 02:06:20;;;;;;;;;;;;;;;6.01;100.00;96477.09;1036679;28;20587;-70
2022/03/16 02:06:50;;;;;;;;;;;;;;;6.01;100.00;96474.50;1036583;28;20397;-70
2022/03/16 02:07:21;;;;;;;;;;;;;;;6.00;100.00;96467.66;1032848;28;19968;-69
2022/03/16 02:07:51;;;;;;;;;;;;;;;5.98;100.00;96472.31;1036906;28;19925;-71
2022/03/16 02:08:21;;;;;;;;;;;;;;;6.00;100.00;96478.09;1040624;28;19929;-70
2022/03/16 02:08:52;;;;;;;;;;;;;;;5.99;100.00;96473.91;1036857;28;19963;-70
2022/03/16 02:09:22;;;;;;;;;;;;;;;5.96;100.00;96472.50;1028014;28;19910;-71
2022/03/16 02:09:53;;;;;;;;;;;;;;;5.97;100.00;96475.91;1032658;28;20415;-70
2022/03/16 02:10:27;;;;;;;;;;;;;;;5.98;100.00;96474.91;1028578;28;19914;-70
2022/03/16 02:10:57;;;;;;;;;;;;;;;5.97;100.00;96475.91;1024488;29;19910;-70
2022/03/16 02:11:27;;;;;;;;;;;;;;;5.98;100.00;96469.72;1024897;29;19946;-70
2022/03/16 02:11:57;;;;;;;;;;;;;;;5.96;100.00;96467.31;1025354;28;20417;-70
2022/03/16 02:12:28;;;;;;;;;;;;;;;5.96;100.00;96476.94;1028559;28;19973;-69
2022/03/16 02:12:58;;;;;;;;;;;;;;;5.94;100.00;96474.56;1041013;28;19936;-70
2022/03/16 02:13:32;;;;;;;;;;;;;;;5.97;100.00;96470.69;1036594;28;19920;-69
2022/03/16 02:14:02;;;;;;;;;;;;;;;5.97;100.00;96473.31;1037201;28;19952;-69
2022/03/16 02:14:32;;;;;;;;;;;;;;;5.94;100.00;96469.34;1040920;28;19908;-70
2022/03/16 02:15:03;;;;;;;;;;;;;;;5.95;100.00;96472.75;1037153;28;19917;-70
2022/03/16 02:15:33;;;;;;;;;;;;;;;5.94;100.00;96471.94;1032643;28;19909;-71
2022/03/16 02:16:04;;;;;;;;;;;;;;;5.94;100.00;96471.94;1032644;28;19906;-70
2022/03/16 02:16:34;;;;;;;;;;;;;;;5.94;100.00;96471.16;1032601;28;20028;-69
2022/03/16 02:17:05;;;;;;;;;;;;;;;5.93;100.00;96479.97;1032689;28;19944;-69
2022/03/16 02:17:35;;;;;;;;;;;;;;;5.93;100.00;96474.75;1044912;28;19917;-70
2022/03/16 02:18:06;;;;;;;;;;;;;;;5.93;100.00;96482.56;1044891;28;20377;-69
2022/03/16 02:18:36;;;;;;;;;;;;;;;5.93;100.00;96474.75;1032637;28;19914;-70
2022/03/16 02:19:06;;;;;;;;;;;;;;;5.89;100.00;96477.75;1031991;28;19922;-69
2022/03/16 02:19:36;;;;;;;;;;;;;;;5.88;100.00;96477.97;1032640;28;19960;-70
2022/03/16 02:20:07;;;;;;;;;;;;;;;5.87;100.00;96479.00;1032755;28;19922;-69
2022/03/16 02:20:38;;;;;;;;;;;;;;;5.86;100.00;96472.97;1040705;28;19956;-70
2022/03/16 02:21:08;;;;;;;;;;;;;;;5.88;100.00;96483.19;1044311;28;19917;-70
2022/03/16 02:21:40;;;;;;;;;;;;;;;5.85;100.00;96475.81;1035610;28;19948;-70
2022/03/16 02:22:13;;;;;;;;;;;;;;;5.86;100.00;96480.00;1036086;28;20391;-70
2022/03/16 02:22:49;;;;;;;;;;;;;;;5.86;100.00;96478.19;1035813;28;19960;-70
2022/03/16 02:23:19;;;;;;;;;;;;;;;5.88;100.00;96481.38;1038915;28;20726;-70
2022/03/16 02:23:49;;;;;;;;;;;;;;;5.89;100.00;96477.75;1036339;28;19926;-70
2022/03/16 02:24:20;;;;;;;;;;;;;;;5.88;100.00;96478.78;1031855;28;19968;-70
2022/03/16 02:24:50;;;;;;;;;;;;;;;5.89;100.00;96476.97;1027994;28;19922;-70
2022/03/16 02:25:21;;;;;;;;;;;;;;;5.86;100.00;96475.56;1024084;28;19914;-70
2022/03/16 02:25:52;;;;;;;;;;;;;;;5.87;100.00;96474.59;1028039;28;20320;-69
2022/03/16 02:26:26;;;;;;;;;;;;;;;5.87;100.00;96476.41;1028102;28;19929;-70
2022/03/16 02:26:56;;;;;;;;;;;;;;;5.85;100.00;96474.00;1028520;28;19926;-69
2022/03/16 02:27:26;;;;;;;;;;;;;;;5.82;100.00;96478.84;1032685;28;19924;-69
2022/03/16 02:27:57;;;;;;;;;;;;;;;5.81;100.00;96485.84;1035922;28;19925;-70
2022/03/16 02:28:27;;;;;;;;;;;;;;;5.82;100.00;96482.22;1032288;28;19922;-70
2022/03/16 02:28:58;;;;;;;;;;;;;;;5.83;100.00;96478.59;1035235;28;19917;-69
2022/03/16 02:29:29;;;;;;;;;;;;;;;5.83;100.00;96480.41;1032179;28;20347;-70
2022/03/16 02:29:59;;;;;;;;;;;;;;;5.81;100.00;96479.84;1032006;28;19921;-70
2022/03/16 02:30:29;;;;;;;;;;;;;;;5.83;100.00;96478.59;1032223;28;19906;-70
2022/03/16 02:31:00;;;;;;;;;;;;;;;5.82;100.00;96482.22;1031868;28;20391;-70
2022/03/16 02:31:30;;;;;;;;;;;;;;;5.64;100.00;96450.94;1036187;28;20279;-70
2022/03/16 02:32:00;;;;;;;;;;;;;;;5.82;100.00;96476.22;1036185;28;19906;-71
2022/03/16 02:32:30;;;;;;;;;;;;;;;5.82;100.00;96482.22;1032076;28;19946;-70
2022/03/16 02:33:01;;;;;;;;;;;;;;;5.79;100.00;96479.25;1031552;28;19910;-70
2022/03/16 02:33:31;;;;;;;;;;;;;;;5.83;100.00;96481.22;1024198;28;19930;-70
2022/03/16 02:34:01;;;;;;;;;;;;;;;5.78;100.00;96483.66;1023821;28;20150;-69
2022/03/16 02:34:32;;;;;;;;;;;;;;;5.83;100.00;96488.22;1029598;28;19906;-70
2022/03/16 02:35:02;;;;;;;;;;;;;;;5.84;100.00;96488.03;1027951;28;19917;-70
2022/03/16 02:35:32;;;;;;;;;;;;;;;5.84;100.00;96490.63;1027832;28;19989;-70
2022/03/16 02:36:03;;;;;;;;;;;;;;;5.84;100.00;96489.84;1024656;28;19911;-70
2022/03/16 02:36:33;;;;;;;;;;;;;;;5.83;100.00;96481.22;1028066;28;19917;-71
2022/03/16 02:37:06;;;;;;;;;;;;;;;5.82;100.00;96484.84;1027926;28;19914;-70
2022/03/16 02:37:37;;;;;;;;;;;;;;;5.77;100.00;96487.28;1028165;28;19910;-69
2022/03/16 02:38:08;;;;;;;;;;;;;;;5.78;100.00;96485.47;1028227;28;19961;-70
2022/03/16 02:38:39;;;;;;;;;;;;;;;5.79;100.00;96487.84;1031893;28;19992;-70
2022/03/16 02:39:09;;;;;;;;;;;;;;;5.76;100.00;96483.06;1023417;28;19957;-70
2022/03/16 02:39:39;;;;;;;;;;;;;;;5.78;100.00;96482.88;1030050;28;19916;-70
2022/03/16 02:40:10;;;;;;;;;;;;;;;5.77;100.00;96483.88;1032028;28;20735;-70